Hlavní strana
METAR-TAF:

METAR-TAF

Letiště :

Moskva, Rusko

zeměpisná šířka: 55-30-42N, zeměpisná délka: 037-30-26E, výška: 173 m

Aktuální stav počasí

Zpráva byla vytvořena před 27 minutami, v 13:30 UTC
Jihojihozápadní vítr 14 kt
Teplota 6°C
Vlhkost vzduchu 61%
Tlak 1018 hPa
Viditelnost 10 km a více
Polojasno ve výšce 4000 ft

METAR: UUMO 181330Z 20007MPS 9999 SCT040 06/M01 Q1018 R26/090060 NOSIG RMK QFE748/0997

Čas: 16:57 (13:57 UTC)

Předpověď počasí

Zpráva byla vytvořena před 3 hodinami a 2 minutami, v 10:55 UTC
Předpověď platná od 18 v 12 UTC do 18 v 21 UTC
Jižní vítr 12 kt s nárazy do 21 kt
Viditelnost 10 km a více
Oblačno až skoro zataženo ve výšce 2000 ft
Změna
od 18 v 18 UTC do 18 v 20 UTC
Oblačno až skoro zataženo ve výšce 1000 ft

TAF: UUMO 181055Z 1812/1821 18006G11MPS 9999 BKN020 BECMG 1818/1820 BKN010

Stav a předpovědi počasí z více než 4 000 letišť (zprávy METAR a TAF).

Červené a žluté tečky na mapě představují dostupné meteorologické stanice.

Když kurzor umístíte na tečku, zobrazí se název stanice.

Pak kliknutím zobrazíte stav a předpověď počasí.

Chcete-li změnit mapu, kliknutím na zelené tlačítko se znaménkem +mapu přiblížíte, kliknutím na zelené tlačítko se znaménkem – mapu oddálíte a kliknutím na zelené šipky přejdete na sousední mapy.


METAR-TAF: